createdAt,value
2022-11-24T00:01:52.899Z,97883.00
2022-11-24T00:04:29.064Z,97884.00
2022-11-24T00:07:04.958Z,97885.20
2022-11-24T00:09:40.790Z,97879.20
2022-11-24T00:12:16.607Z,97884.40
2022-11-24T00:14:53.308Z,97891.20
2022-11-24T00:17:29.661Z,97893.60
2022-11-24T00:20:06.385Z,97896.00
2022-11-24T00:22:42.294Z,97900.20
2022-11-24T00:25:18.363Z,97903.00
2022-11-24T00:27:54.963Z,97897.80
2022-11-24T00:30:30.991Z,97904.40
2022-11-24T00:33:06.970Z,97900.60
2022-11-24T00:35:43.014Z,97903.80
2022-11-24T00:38:18.921Z,97908.40
2022-11-24T00:40:55.243Z,97911.60
2022-11-24T00:43:31.014Z,97914.00
2022-11-24T00:46:07.746Z,97919.20
2022-11-24T00:48:43.947Z,97921.00
2022-11-24T00:51:22.033Z,97924.80
2022-11-24T00:53:58.464Z,97920.80
2022-11-24T00:56:34.992Z,97919.20
2022-11-24T00:59:10.964Z,97918.40
2022-11-24T01:01:47.171Z,97917.60
2022-11-24T01:04:23.015Z,97917.40
2022-11-24T01:06:58.823Z,97921.60
2022-11-24T01:09:34.780Z,97920.80
2022-11-24T01:12:11.108Z,97921.00
2022-11-24T01:14:47.414Z,97920.20
2022-11-24T01:17:23.357Z,97920.80
2022-11-24T01:19:59.285Z,97919.00
2022-11-24T01:22:35.476Z,97927.40
2022-11-24T01:25:14.046Z,97930.80
2022-11-24T01:27:50.050Z,97928.00
2022-11-24T01:30:26.113Z,97931.80
2022-11-24T01:33:02.039Z,97934.80
2022-11-24T01:35:39.038Z,97938.00
2022-11-24T01:38:14.885Z,97939.80
2022-11-24T01:40:50.946Z,97942.60
2022-11-24T01:43:27.090Z,97940.80
2022-11-24T01:46:13.117Z,97939.40
2022-11-24T01:48:53.882Z,97940.20
2022-11-24T01:51:35.635Z,97941.40
2022-11-24T01:54:17.002Z,97936.00
2022-11-24T01:56:59.132Z,97942.20
2022-11-24T01:59:35.981Z,97938.80
2022-11-24T02:02:12.355Z,97942.40
2022-11-24T02:04:49.672Z,97945.60
2022-11-24T02:07:25.907Z,97951.80
2022-11-24T02:10:07.387Z,97958.00
2022-11-24T02:12:47.875Z,97955.00
2022-11-24T02:15:25.384Z,97956.80
2022-11-24T02:18:02.899Z,97958.40
2022-11-24T02:20:38.920Z,97961.80
2022-11-24T02:23:26.058Z,97960.80
2022-11-24T02:26:18.366Z,97960.60
2022-11-24T02:28:54.446Z,97958.00
2022-11-24T02:31:30.727Z,97964.40
2022-11-24T02:34:06.746Z,97965.80
2022-11-24T02:36:42.853Z,97970.40
2022-11-24T02:39:19.475Z,97966.20
2022-11-24T02:42:00.675Z,97968.00
2022-11-24T02:44:43.278Z,97968.40
2022-11-24T02:47:19.318Z,97970.60
2022-11-24T02:49:55.366Z,97968.60
2022-11-24T02:52:31.229Z,97967.40
2022-11-24T02:55:08.353Z,97967.20
2022-11-24T02:57:44.374Z,97967.20
2022-11-24T03:00:23.073Z,97968.40
2022-11-24T03:02:59.148Z,97967.80
2022-11-24T03:05:36.132Z,97975.40
2022-11-24T03:08:13.034Z,97977.40
2022-11-24T03:10:49.378Z,97976.60
2022-11-24T03:13:25.365Z,97974.80
2022-11-24T03:16:01.350Z,97971.00
2022-11-24T03:18:37.352Z,97971.20
2022-11-24T03:21:14.635Z,97971.00
2022-11-24T03:23:51.067Z,97970.80
2022-11-24T03:26:28.803Z,97969.40
2022-11-24T03:29:04.785Z,97967.60
2022-11-24T03:31:40.892Z,97969.00
2022-11-24T03:34:17.590Z,97967.40
2022-11-24T03:36:53.491Z,97972.00
2022-11-24T03:39:29.712Z,97971.40
2022-11-24T03:42:05.973Z,97970.40
2022-11-24T03:44:41.873Z,97972.40
2022-11-24T03:47:18.057Z,97971.20
2022-11-24T03:49:54.133Z,97972.20
2022-11-24T03:52:29.908Z,97979.40
2022-11-24T03:55:06.354Z,97979.60
2022-11-24T03:57:42.285Z,97984.80
2022-11-24T04:00:21.020Z,97989.60
2022-11-24T04:02:56.960Z,97991.40
2022-11-24T04:05:33.355Z,97991.20
2022-11-24T04:08:10.048Z,97992.20
2022-11-24T04:10:50.400Z,97993.80
2022-11-24T04:13:28.454Z,97996.80
2022-11-24T04:16:08.267Z,98004.00
2022-11-24T04:18:44.526Z,98006.00
2022-11-24T04:21:20.808Z,98008.40
2022-11-24T04:23:56.938Z,98007.40
2022-11-24T04:26:33.115Z,98009.20
2022-11-24T04:29:10.255Z,98006.40
2022-11-24T04:31:46.232Z,98005.60
2022-11-24T04:34:22.362Z,98012.20
2022-11-24T04:36:58.362Z,98011.80
2022-11-24T04:39:34.483Z,98009.20
2022-11-24T04:42:10.754Z,98011.20
2022-11-24T04:44:47.076Z,98011.00
2022-11-24T04:47:26.984Z,98010.60
2022-11-24T04:50:02.904Z,98016.00
2022-11-24T04:52:38.963Z,98016.00
2022-11-24T04:55:16.382Z,98018.40
2022-11-24T04:57:52.351Z,98022.20
2022-11-24T05:00:28.416Z,98024.40
2022-11-24T05:03:05.269Z,98024.80
2022-11-24T05:05:41.352Z,98027.40
2022-11-24T05:08:17.312Z,98026.40
2022-11-24T05:10:53.264Z,98029.20
2022-11-24T05:13:29.169Z,98031.60
2022-11-24T05:16:05.651Z,98030.40
2022-11-24T05:18:41.703Z,98034.00
2022-11-24T05:21:17.812Z,98033.60
2022-11-24T05:23:53.975Z,98032.20
2022-11-24T05:26:30.614Z,98036.40
2022-11-24T05:29:06.608Z,98032.60
2022-11-24T05:31:42.669Z,98034.80
2022-11-24T05:34:19.303Z,98042.80
2022-11-24T05:36:55.497Z,98045.20
2022-11-24T05:39:32.167Z,98045.00
2022-11-24T05:42:24.299Z,98047.40
2022-11-24T05:45:00.777Z,98049.40
2022-11-24T05:47:37.236Z,98051.80
2022-11-24T05:50:17.175Z,98053.60
2022-11-24T05:52:53.441Z,98058.40
2022-11-24T05:55:29.376Z,98060.80
2022-11-24T05:58:08.030Z,98060.40
2022-11-24T06:00:44.006Z,98062.20
2022-11-24T06:03:19.874Z,98061.80
2022-11-24T06:05:55.888Z,98068.00
2022-11-24T06:08:32.685Z,98066.40
2022-11-24T06:11:18.649Z,98068.00
2022-11-24T06:13:55.490Z,98067.20
2022-11-24T06:16:31.478Z,98077.20
2022-11-24T06:19:07.601Z,98082.60
2022-11-24T06:21:43.601Z,98082.00
2022-11-24T06:24:19.657Z,98080.60
2022-11-24T06:26:55.717Z,98085.00
2022-11-24T06:29:32.426Z,98086.40
2022-11-24T06:32:09.209Z,98092.20
2022-11-24T06:34:45.857Z,98091.40
2022-11-24T06:37:21.799Z,98089.80
2022-11-24T06:39:58.062Z,98094.80
2022-11-24T06:42:34.297Z,98097.40
2022-11-24T06:45:12.594Z,98097.20
2022-11-24T06:47:48.680Z,98094.60
2022-11-24T06:50:29.226Z,98102.40
2022-11-24T06:53:08.181Z,98100.80
2022-11-24T06:55:45.199Z,98103.80
2022-11-24T06:58:21.421Z,98111.20
2022-11-24T07:00:57.432Z,98110.60
2022-11-24T07:03:33.897Z,98110.80
2022-11-24T07:06:10.829Z,98115.00
2022-11-24T07:08:47.593Z,98114.20
2022-11-24T07:11:26.227Z,98121.20
2022-11-24T07:14:03.543Z,98121.80
2022-11-24T07:16:40.025Z,98127.40
2022-11-24T07:19:20.174Z,98129.20
2022-11-24T07:21:59.274Z,98129.80
2022-11-24T07:24:35.196Z,98136.80
2022-11-24T07:27:11.499Z,98133.80
2022-11-24T07:29:47.541Z,98136.80
2022-11-24T07:32:23.369Z,98139.00
2022-11-24T07:34:59.458Z,98144.40
2022-11-24T07:37:36.122Z,98147.60
2022-11-24T07:40:14.935Z,98144.00
2022-11-24T07:42:51.002Z,98142.80
2022-11-24T07:45:26.900Z,98139.60
2022-11-24T07:48:02.821Z,98141.80
2022-11-24T07:50:38.979Z,98141.60
2022-11-24T07:53:14.936Z,98142.60
2022-11-24T07:55:59.889Z,98141.00
2022-11-24T07:58:38.133Z,98142.40
2022-11-24T08:01:20.027Z,98143.80
2022-11-24T08:03:54.473Z,98142.40
2022-11-24T08:06:39.654Z,98146.80
2022-11-24T08:09:18.196Z,98147.80
2022-11-24T08:11:54.262Z,98149.20
2022-11-24T08:14:30.214Z,98157.20
2022-11-24T08:17:06.425Z,98157.80
2022-11-24T08:19:42.270Z,98160.00
2022-11-24T08:22:18.086Z,98164.80
2022-11-24T08:24:54.112Z,98161.80
2022-11-24T08:27:31.119Z,98163.40
2022-11-24T08:30:08.859Z,98167.20
2022-11-24T08:32:44.777Z,98169.60
2022-11-24T08:35:21.098Z,98169.40
2022-11-24T08:38:01.677Z,98172.00
2022-11-24T08:40:40.632Z,98174.00
2022-11-24T08:43:16.586Z,98174.40
2022-11-24T08:45:52.679Z,98177.00
2022-11-24T08:48:29.085Z,98178.00
2022-11-24T08:51:12.281Z,98178.20
2022-11-24T08:53:48.634Z,98180.80
2022-11-24T08:56:24.646Z,98181.60
2022-11-24T08:59:01.330Z,98184.20
2022-11-24T09:01:39.370Z,98187.20
2022-11-24T09:04:15.426Z,98184.80
2022-11-24T09:06:51.476Z,98185.60
2022-11-24T09:09:27.513Z,98188.80
2022-11-24T09:12:03.470Z,98189.00
2022-11-24T09:14:39.646Z,98185.20
2022-11-24T09:17:15.705Z,98184.00
2022-11-24T09:19:52.466Z,98183.60
2022-11-24T09:22:28.409Z,98187.00
2022-11-24T09:25:04.483Z,98189.00
2022-11-24T09:27:40.547Z,98190.80
2022-11-24T09:30:19.262Z,98188.60
2022-11-24T09:32:56.213Z,98193.00
2022-11-24T09:35:32.298Z,98186.40
2022-11-24T09:38:08.293Z,98190.60
2022-11-24T09:40:44.568Z,98193.80
2022-11-24T09:43:39.207Z,98188.00
2022-11-24T09:46:26.804Z,98189.40
2022-11-24T09:49:05.216Z,98188.40
2022-11-24T09:51:43.453Z,98187.40
2022-11-24T09:54:24.119Z,98190.80
2022-11-24T09:57:05.907Z,98188.60
2022-11-24T09:59:44.897Z,98185.20
2022-11-24T10:02:20.783Z,98189.20
2022-11-24T10:04:57.031Z,98184.40
2022-11-24T10:07:41.469Z,98189.60
2022-11-24T10:10:25.200Z,98191.40
2022-11-24T10:13:18.466Z,98189.00
2022-11-24T10:16:13.389Z,98188.00
2022-11-24T10:19:06.549Z,98184.80
2022-11-24T10:22:06.891Z,98188.40
2022-11-24T10:25:13.966Z,98187.80
2022-11-24T10:28:00.105Z,98184.80
2022-11-24T10:30:36.423Z,98184.80
2022-11-24T10:33:28.717Z,98187.40
2022-11-24T10:36:18.014Z,98186.80
2022-11-24T10:39:04.429Z,98189.00
2022-11-24T10:41:53.167Z,98185.60
2022-11-24T10:44:29.654Z,98186.00
2022-11-24T10:47:12.927Z,98183.00
2022-11-24T10:49:56.965Z,98190.00
2022-11-24T10:52:40.014Z,98188.20
2022-11-24T10:55:16.191Z,98189.20
2022-11-24T10:57:52.126Z,98192.20
2022-11-24T11:00:38.652Z,98192.00
2022-11-24T11:03:25.015Z,98192.80
2022-11-24T11:06:13.500Z,98192.80
2022-11-24T11:08:49.874Z,98189.80
2022-11-24T11:11:30.965Z,98188.60
2022-11-24T11:14:11.103Z,98187.00
2022-11-24T11:16:54.774Z,98187.40
2022-11-24T11:19:52.352Z,98186.00
2022-11-24T11:22:34.082Z,98186.20
2022-11-24T11:25:27.880Z,98187.80
2022-11-24T11:28:30.899Z,98187.00
2022-11-24T11:31:22.618Z,98191.20
2022-11-24T11:34:23.509Z,98190.20
2022-11-24T11:37:04.014Z,98192.40
2022-11-24T11:39:48.634Z,98196.00
2022-11-24T11:43:01.290Z,98191.40
2022-11-24T11:45:42.923Z,98193.00
2022-11-24T11:48:42.784Z,98193.20
2022-11-24T11:51:48.307Z,98193.80
2022-11-24T11:54:45.603Z,98197.00
2022-11-24T11:57:39.261Z,98196.00
2022-11-24T12:00:22.071Z,98194.80
2022-11-24T12:03:43.845Z,98193.60
2022-11-24T12:06:48.048Z,98192.60
2022-11-24T12:09:43.366Z,98194.80
2022-11-24T12:12:57.006Z,98192.80
2022-11-24T12:15:42.091Z,98198.60
2022-11-24T12:18:57.005Z,98195.60
2022-11-24T12:21:48.126Z,98196.60
2022-11-24T12:24:35.605Z,98196.60
2022-11-24T12:27:23.521Z,98204.20
2022-11-24T12:30:22.990Z,98203.80
2022-11-24T12:33:35.844Z,98202.80
2022-11-24T12:36:33.107Z,98207.00
2022-11-24T12:39:26.608Z,98205.20
2022-11-24T12:42:22.320Z,98206.80
2022-11-24T12:45:16.206Z,98207.00
2022-11-24T12:48:16.841Z,98211.00
2022-11-24T12:50:55.952Z,98214.20
2022-11-24T12:53:35.642Z,98218.00
2022-11-24T12:56:17.752Z,98222.00
2022-11-24T12:59:10.034Z,98223.80
2022-11-24T13:01:58.589Z,98226.20
2022-11-24T13:04:47.847Z,98229.80
2022-11-24T13:07:39.010Z,98233.40
2022-11-24T13:10:55.391Z,98231.40
2022-11-24T13:14:00.852Z,98234.40
2022-11-24T13:17:13.440Z,98233.00
2022-11-24T13:19:45.409Z,98237.00
2022-11-24T13:22:28.093Z,98241.60
2022-11-24T13:25:24.812Z,98241.80
2022-11-24T13:28:02.245Z,98241.80
2022-11-24T13:31:12.540Z,98240.60
2022-11-24T13:33:48.699Z,98245.40
2022-11-24T13:36:56.301Z,98247.60
2022-11-24T13:39:57.820Z,98258.80
2022-11-24T13:42:54.720Z,98263.60
2022-11-24T13:45:57.215Z,98266.80
2022-11-24T13:49:23.720Z,98269.60
2022-11-24T13:52:49.137Z,98278.00
2022-11-24T13:55:33.764Z,98277.00
2022-11-24T13:58:35.664Z,98279.80
2022-11-24T14:01:23.132Z,98291.80
2022-11-24T14:04:31.762Z,98292.80
2022-11-24T14:07:19.838Z,98294.00
2022-11-24T14:09:56.485Z,98298.80
2022-11-24T14:12:33.888Z,98303.80
2022-11-24T14:15:29.601Z,98304.20
2022-11-24T14:18:22.062Z,98312.40
2022-11-24T14:20:58.373Z,98317.40
2022-11-24T14:23:35.576Z,98324.00
2022-11-24T14:26:22.173Z,98332.00
2022-11-24T14:29:20.544Z,98334.60
2022-11-24T14:32:03.644Z,98337.00
2022-11-24T14:34:41.929Z,98337.80
2022-11-24T14:37:17.938Z,98341.60
2022-11-24T14:39:53.968Z,98343.60
2022-11-24T14:42:33.372Z,98343.80
2022-11-24T14:45:20.678Z,98345.60
2022-11-24T14:47:56.767Z,98350.80
2022-11-24T14:50:33.012Z,98348.20
2022-11-24T14:53:20.780Z,98351.20
2022-11-24T14:59:01.612Z,98358.80
2022-11-24T15:01:38.764Z,98359.00
2022-11-24T15:04:46.404Z,98361.80
2022-11-24T15:07:29.186Z,98369.20
2022-11-24T15:10:19.279Z,98376.00
2022-11-24T15:13:04.755Z,98377.00
2022-11-24T15:15:47.213Z,98378.40
2022-11-24T15:18:42.365Z,98383.60
2022-11-24T15:21:30.968Z,98387.00
2022-11-24T15:24:24.024Z,98391.80
2022-11-24T15:27:05.665Z,98391.20
2022-11-24T15:29:41.694Z,98397.00
2022-11-24T15:32:19.713Z,98401.40
2022-11-24T15:34:55.667Z,98403.60
2022-11-24T15:37:34.488Z,98401.00
2022-11-24T15:40:14.641Z,98409.20
2022-11-24T15:42:56.043Z,98409.00
2022-11-24T15:45:31.989Z,98409.40
2022-11-24T15:48:10.505Z,98412.40
2022-11-24T15:50:49.724Z,98416.60
2022-11-24T15:53:32.864Z,98421.20
2022-11-24T15:56:16.145Z,98423.20
2022-11-24T15:58:52.222Z,98418.80
2022-11-24T16:01:33.259Z,98425.20
2022-11-24T16:04:09.430Z,98426.80
2022-11-24T16:06:45.534Z,98424.40
2022-11-24T16:09:21.858Z,98428.80
2022-11-24T16:11:57.711Z,98433.80
2022-11-24T16:14:34.185Z,98438.40
2022-11-24T16:17:10.785Z,98444.40
2022-11-24T16:19:50.571Z,98443.40
2022-11-24T16:22:36.247Z,98445.80
2022-11-24T16:25:14.483Z,98449.00
2022-11-24T16:27:50.555Z,98452.20
2022-11-24T16:30:26.671Z,98457.80
2022-11-24T16:33:06.766Z,98456.80
2022-11-24T16:35:42.847Z,98455.80
2022-11-24T16:38:21.126Z,98461.20
2022-11-24T16:41:00.582Z,98458.60
2022-11-24T16:43:36.649Z,98459.20
2022-11-24T16:46:24.787Z,98464.00
2022-11-24T16:49:03.644Z,98465.20
2022-11-24T16:51:39.679Z,98463.80
2022-11-24T16:54:15.823Z,98462.00
2022-11-24T16:56:51.885Z,98465.80
2022-11-24T16:59:28.047Z,98470.60
2022-11-24T17:02:04.530Z,98468.40
2022-11-24T17:04:40.880Z,98474.40
2022-11-24T17:07:17.026Z,98474.20
2022-11-24T17:09:53.516Z,98475.40
2022-11-24T17:12:30.038Z,98474.20
2022-11-24T17:15:31.810Z,98474.80
2022-11-24T17:18:23.401Z,98477.40
2022-11-24T17:21:07.838Z,98482.60
2022-11-24T17:23:46.244Z,98481.80
2022-11-24T17:26:22.695Z,98482.40
2022-11-24T17:28:59.141Z,98485.00
2022-11-24T17:31:36.904Z,98483.20
2022-11-24T17:34:15.167Z,98487.00
2022-11-24T17:36:51.203Z,98496.00
2022-11-24T17:39:27.927Z,98501.20
2022-11-24T17:42:05.366Z,98496.00
2022-11-24T17:44:41.630Z,98502.20
2022-11-24T17:47:17.508Z,98505.20
2022-11-24T17:49:53.740Z,98511.60
2022-11-24T17:52:31.995Z,98510.40
2022-11-24T17:55:09.551Z,98512.40
2022-11-24T17:57:45.709Z,98515.80
2022-11-24T18:00:24.040Z,98518.80
2022-11-24T18:03:01.070Z,98523.40
2022-11-24T18:05:40.190Z,98520.80
2022-11-24T18:08:17.215Z,98525.80
2022-11-24T18:10:53.408Z,98528.00
2022-11-24T18:13:55.328Z,98524.20
2022-11-24T18:16:30.392Z,98532.00
2022-11-24T18:19:10.961Z,98536.20
2022-11-24T18:21:47.633Z,98541.00
2022-11-24T18:24:24.355Z,98548.60
2022-11-24T18:27:00.530Z,98552.40
2022-11-24T18:29:36.818Z,98554.00
2022-11-24T18:32:13.031Z,98558.20
2022-11-24T18:34:51.171Z,98557.60
2022-11-24T18:37:27.429Z,98553.00
2022-11-24T18:40:04.042Z,98559.40
2022-11-24T18:42:39.949Z,98558.00
2022-11-24T18:45:17.284Z,98559.20
2022-11-24T18:47:53.322Z,98560.20
2022-11-24T18:50:29.457Z,98563.40
2022-11-24T18:53:05.902Z,98558.20
2022-11-24T18:55:42.262Z,98559.40
2022-11-24T18:58:18.728Z,98561.00
2022-11-24T19:00:55.510Z,98562.40
2022-11-24T19:03:31.691Z,98569.40
2022-11-24T19:06:18.223Z,98569.80
2022-11-24T19:08:57.340Z,98570.20
2022-11-24T19:11:37.177Z,98581.00
2022-11-24T19:14:17.796Z,98578.60
2022-11-24T19:16:53.950Z,98585.00
2022-11-24T19:19:34.193Z,98587.40
2022-11-24T19:22:13.358Z,98586.80
2022-11-24T19:24:50.874Z,98592.00
2022-11-24T19:27:26.869Z,98586.60
2022-11-24T19:30:02.824Z,98595.60
2022-11-24T19:32:40.280Z,98596.60
2022-11-24T19:35:16.680Z,98600.00
2022-11-24T19:37:52.823Z,98602.60
2022-11-24T19:40:28.868Z,98599.20
2022-11-24T19:43:04.928Z,98601.40
2022-11-24T19:45:44.573Z,98602.00
2022-11-24T19:48:20.831Z,98604.20
2022-11-24T19:51:05.233Z,98607.40
2022-11-24T19:53:41.957Z,98612.00
2022-11-24T19:56:21.617Z,98613.40
2022-11-24T19:58:59.003Z,98615.40
2022-11-24T20:01:38.318Z,98617.60
2022-11-24T20:04:22.742Z,98615.80
2022-11-24T20:07:00.406Z,98617.40
2022-11-24T20:09:36.530Z,98617.60
2022-11-24T20:12:13.579Z,98624.80
2022-11-24T20:14:49.817Z,98630.00
2022-11-24T20:17:25.897Z,98637.80
2022-11-24T20:20:02.195Z,98634.60
2022-11-24T20:22:38.273Z,98640.00
2022-11-24T20:25:14.723Z,98642.00
2022-11-24T20:27:51.857Z,98645.60
2022-11-24T20:30:27.882Z,98646.20
2022-11-24T20:33:04.293Z,98647.00
2022-11-24T20:35:40.256Z,98648.00
2022-11-24T20:38:18.699Z,98653.20
2022-11-24T20:41:07.552Z,98655.00
2022-11-24T20:43:46.997Z,98653.20
2022-11-24T20:46:27.335Z,98661.00
2022-11-24T20:49:04.605Z,98661.20
2022-11-24T20:51:44.301Z,98665.00
2022-11-24T20:54:21.218Z,98669.20
2022-11-24T20:56:58.130Z,98668.20
2022-11-24T20:59:34.291Z,98666.80
2022-11-24T21:02:12.067Z,98668.20
2022-11-24T21:04:48.557Z,98671.40
2022-11-24T21:07:24.537Z,98674.60
2022-11-24T21:10:00.595Z,98675.60
2022-11-24T21:12:36.843Z,98673.80
2022-11-24T21:15:14.301Z,98676.40
2022-11-24T21:17:50.342Z,98677.40
2022-11-24T21:20:26.636Z,98670.20
2022-11-24T21:23:03.835Z,98675.60
2022-11-24T21:25:40.216Z,98673.00
2022-11-24T21:28:16.363Z,98680.40
2022-11-24T21:30:52.428Z,98685.00
2022-11-24T21:33:28.515Z,98686.40
2022-11-24T21:36:09.242Z,98691.20
2022-11-24T21:38:45.841Z,98695.00
2022-11-24T21:41:23.659Z,98697.40
2022-11-24T21:43:59.987Z,98700.60
2022-11-24T21:46:43.640Z,98703.80
2022-11-24T21:49:21.317Z,98708.60
2022-11-24T21:51:57.412Z,98711.60
2022-11-24T21:54:33.650Z,98712.40
2022-11-24T21:57:10.656Z,98717.60
2022-11-24T21:59:46.775Z,98723.80
2022-11-24T22:02:22.875Z,98723.80
2022-11-24T22:04:59.197Z,98725.20
2022-11-24T22:07:38.253Z,98724.60
2022-11-24T22:10:15.965Z,98724.40
2022-11-24T22:12:52.314Z,98721.40
2022-11-24T22:15:28.277Z,98718.80
2022-11-24T22:18:04.344Z,98725.20
2022-11-24T22:20:40.364Z,98724.00
2022-11-24T22:23:16.944Z,98722.20
2022-11-24T22:25:52.991Z,98724.60
2022-11-24T22:28:30.897Z,98723.20
2022-11-24T22:31:13.042Z,98720.40
2022-11-24T22:33:49.648Z,98723.20
2022-11-24T22:36:27.949Z,98727.80
2022-11-24T22:39:06.788Z,98728.40
2022-11-24T22:41:42.693Z,98729.20
2022-11-24T22:44:18.763Z,98730.40
2022-11-24T22:46:54.771Z,98736.40
2022-11-24T22:49:30.829Z,98748.80
2022-11-24T22:52:06.868Z,98745.20
2022-11-24T22:54:42.762Z,98746.80
2022-11-24T22:57:18.879Z,98751.00
2022-11-24T22:59:54.904Z,98754.00
2022-11-24T23:02:30.943Z,98752.20
2022-11-24T23:05:08.467Z,98753.60
2022-11-24T23:07:44.590Z,98759.00
2022-11-24T23:10:20.991Z,98759.60
2022-11-24T23:12:57.392Z,98757.40
2022-11-24T23:15:34.098Z,98752.20
2022-11-24T23:18:10.340Z,98754.60
2022-11-24T23:20:46.197Z,98757.20
2022-11-24T23:23:22.036Z,98753.40
2022-11-24T23:26:00.451Z,98750.80
2022-11-24T23:28:36.638Z,98756.00
2022-11-24T23:31:15.909Z,98752.60
2022-11-24T23:33:52.210Z,98751.40
2022-11-24T23:36:28.874Z,98756.80
2022-11-24T23:39:12.323Z,98751.80
2022-11-24T23:41:48.160Z,98760.00
2022-11-24T23:44:24.040Z,98761.40
2022-11-24T23:47:00.096Z,98758.40
2022-11-24T23:49:36.122Z,98763.00
2022-11-24T23:52:12.347Z,98758.80
2022-11-24T23:54:48.375Z,98759.40
2022-11-24T23:57:24.256Z,98765.80
